sensor_id;sensor_type;location;lat;lon;timestamp;P1;durP1;ratioP1;P2;durP2;ratioP2
59442;SDS011;45247;47.466;19.004;2023-05-10T00:00:18;2.17;;;1.60;;
59442;SDS011;45247;47.466;19.004;2023-05-10T00:02:48;2.35;;;1.65;;
59442;SDS011;45247;47.466;19.004;2023-05-10T00:05:17;2.25;;;1.80;;
59442;SDS011;45247;47.466;19.004;2023-05-10T00:07:45;3.88;;;1.90;;
59442;SDS011;45247;47.466;19.004;2023-05-10T00:10:14;2.97;;;1.85;;
59442;SDS011;45247;47.466;19.004;2023-05-10T00:12:42;4.32;;;1.95;;
59442;SDS011;45247;47.466;19.004;2023-05-10T00:15:12;2.83;;;1.98;;
59442;SDS011;45247;47.466;19.004;2023-05-10T00:17:40;3.05;;;1.98;;
59442;SDS011;45247;47.466;19.004;2023-05-10T00:20:09;2.40;;;2.00;;
59442;SDS011;45247;47.466;19.004;2023-05-10T00:22:38;3.55;;;2.25;;
59442;SDS011;45247;47.466;19.004;2023-05-10T00:25:07;5.07;;;2.20;;
59442;SDS011;45247;47.466;19.004;2023-05-10T00:27:36;2.75;;;2.25;;
59442;SDS011;45247;47.466;19.004;2023-05-10T00:30:05;3.65;;;2.13;;
59442;SDS011;45247;47.466;19.004;2023-05-10T00:32:35;3.70;;;2.20;;
59442;SDS011;45247;47.466;19.004;2023-05-10T00:35:04;4.88;;;1.85;;
59442;SDS011;45247;47.466;19.004;2023-05-10T00:37:32;3.50;;;2.10;;
59442;SDS011;45247;47.466;19.004;2023-05-10T00:40:00;3.38;;;2.30;;
59442;SDS011;45247;47.466;19.004;2023-05-10T00:42:28;4.25;;;2.60;;
59442;SDS011;45247;47.466;19.004;2023-05-10T00:44:57;5.60;;;2.30;;
59442;SDS011;45247;47.466;19.004;2023-05-10T00:47:25;2.38;;;1.88;;
59442;SDS011;45247;47.466;19.004;2023-05-10T00:49:54;2.28;;;1.88;;
59442;SDS011;45247;47.466;19.004;2023-05-10T00:52:26;2.17;;;1.85;;
59442;SDS011;45247;47.466;19.004;2023-05-10T00:54:54;2.75;;;2.15;;
59442;SDS011;45247;47.466;19.004;2023-05-10T00:57:23;3.13;;;2.17;;
59442;SDS011;45247;47.466;19.004;2023-05-10T00:59:52;3.00;;;2.17;;
59442;SDS011;45247;47.466;19.004;2023-05-10T01:02:20;2.97;;;2.20;;
59442;SDS011;45247;47.466;19.004;2023-05-10T01:04:48;4.68;;;2.40;;
59442;SDS011;45247;47.466;19.004;2023-05-10T01:07:18;2.78;;;2.45;;
59442;SDS011;45247;47.466;19.004;2023-05-10T01:09:46;3.00;;;2.35;;
59442;SDS011;45247;47.466;19.004;2023-05-10T01:12:14;3.03;;;2.40;;
59442;SDS011;45247;47.466;19.004;2023-05-10T01:14:43;4.47;;;2.40;;
59442;SDS011;45247;47.466;19.004;2023-05-10T01:17:11;3.20;;;2.28;;
59442;SDS011;45247;47.466;19.004;2023-05-10T01:19:40;4.47;;;2.97;;
59442;SDS011;45247;47.466;19.004;2023-05-10T01:22:11;2.42;;;2.00;;
59442;SDS011;45247;47.466;19.004;2023-05-10T01:25:11;3.35;;;2.13;;
59442;SDS011;45247;47.466;19.004;2023-05-10T01:31:00;4.03;;;2.30;;
59442;SDS011;45247;47.466;19.004;2023-05-10T01:33:52;3.70;;;2.10;;
59442;SDS011;45247;47.466;19.004;2023-05-10T01:36:27;2.60;;;2.10;;
59442;SDS011;45247;47.466;19.004;2023-05-10T01:39:13;4.07;;;2.53;;
59442;SDS011;45247;47.466;19.004;2023-05-10T01:41:47;3.08;;;2.53;;
59442;SDS011;45247;47.466;19.004;2023-05-10T01:44:25;2.50;;;2.00;;
59442;SDS011;45247;47.466;19.004;2023-05-10T01:47:01;3.05;;;1.90;;
59442;SDS011;45247;47.466;19.004;2023-05-10T01:49:37;4.15;;;2.53;;
59442;SDS011;45247;47.466;19.004;2023-05-10T01:52:11;6.85;;;2.65;;
59442;SDS011;45247;47.466;19.004;2023-05-10T01:54:48;3.13;;;2.40;;
59442;SDS011;45247;47.466;19.004;2023-05-10T01:57:35;4.97;;;2.30;;
59442;SDS011;45247;47.466;19.004;2023-05-10T02:00:06;3.85;;;2.30;;
59442;SDS011;45247;47.466;19.004;2023-05-10T02:02:38;3.65;;;2.50;;
59442;SDS011;45247;47.466;19.004;2023-05-10T02:05:10;3.17;;;2.20;;
59442;SDS011;45247;47.466;19.004;2023-05-10T02:07:41;4.05;;;2.38;;
59442;SDS011;45247;47.466;19.004;2023-05-10T02:12:44;2.90;;;2.20;;
59442;SDS011;45247;47.466;19.004;2023-05-10T02:15:17;3.50;;;2.60;;
59442;SDS011;45247;47.466;19.004;2023-05-10T02:17:48;5.57;;;2.60;;
59442;SDS011;45247;47.466;19.004;2023-05-10T02:20:18;5.90;;;2.50;;
59442;SDS011;45247;47.466;19.004;2023-05-10T02:22:48;3.70;;;2.67;;
59442;SDS011;45247;47.466;19.004;2023-05-10T02:25:19;4.88;;;2.47;;
59442;SDS011;45247;47.466;19.004;2023-05-10T02:27:48;3.33;;;2.60;;
59442;SDS011;45247;47.466;19.004;2023-05-10T02:30:19;3.55;;;2.40;;
59442;SDS011;45247;47.466;19.004;2023-05-10T02:32:48;5.15;;;2.58;;
59442;SDS011;45247;47.466;19.004;2023-05-10T02:35:18;3.17;;;2.20;;
59442;SDS011;45247;47.466;19.004;2023-05-10T02:37:47;2.92;;;2.35;;
59442;SDS011;45247;47.466;19.004;2023-05-10T02:40:16;3.08;;;2.25;;
59442;SDS011;45247;47.466;19.004;2023-05-10T02:42:45;2.80;;;2.50;;
59442;SDS011;45247;47.466;19.004;2023-05-10T02:45:18;3.55;;;2.35;;
59442;SDS011;45247;47.466;19.004;2023-05-10T02:47:49;3.00;;;2.40;;
59442;SDS011;45247;47.466;19.004;2023-05-10T02:50:19;4.35;;;2.50;;
59442;SDS011;45247;47.466;19.004;2023-05-10T02:52:49;5.22;;;2.17;;
59442;SDS011;45247;47.466;19.004;2023-05-10T02:55:19;3.22;;;2.50;;
59442;SDS011;45247;47.466;19.004;2023-05-10T02:57:55;3.22;;;2.22;;
59442;SDS011;45247;47.466;19.004;2023-05-10T03:00:26;3.58;;;2.50;;
59442;SDS011;45247;47.466;19.004;2023-05-10T03:02:54;3.33;;;2.30;;
59442;SDS011;45247;47.466;19.004;2023-05-10T03:05:24;2.45;;;2.10;;
59442;SDS011;45247;47.466;19.004;2023-05-10T03:07:52;2.92;;;2.28;;
59442;SDS011;45247;47.466;19.004;2023-05-10T03:10:22;3.60;;;2.22;;
59442;SDS011;45247;47.466;19.004;2023-05-10T03:12:57;3.17;;;2.33;;
59442;SDS011;45247;47.466;19.004;2023-05-10T03:15:37;4.72;;;2.50;;
59442;SDS011;45247;47.466;19.004;2023-05-10T03:18:27;4.15;;;2.38;;
59442;SDS011;45247;47.466;19.004;2023-05-10T03:21:03;2.97;;;2.40;;
59442;SDS011;45247;47.466;19.004;2023-05-10T03:23:39;3.30;;;2.40;;
59442;SDS011;45247;47.466;19.004;2023-05-10T03:26:11;3.60;;;2.55;;
59442;SDS011;45247;47.466;19.004;2023-05-10T03:28:46;3.80;;;2.50;;
59442;SDS011;45247;47.466;19.004;2023-05-10T03:31:16;7.60;;;2.65;;
59442;SDS011;45247;47.466;19.004;2023-05-10T03:33:45;3.35;;;2.63;;
59442;SDS011;45247;47.466;19.004;2023-05-10T03:36:16;3.78;;;2.55;;
59442;SDS011;45247;47.466;19.004;2023-05-10T03:38:44;2.97;;;2.05;;
59442;SDS011;45247;47.466;19.004;2023-05-10T03:41:12;4.50;;;2.42;;
59442;SDS011;45247;47.466;19.004;2023-05-10T03:43:40;3.58;;;2.63;;
59442;SDS011;45247;47.466;19.004;2023-05-10T03:46:08;3.15;;;2.47;;
59442;SDS011;45247;47.466;19.004;2023-05-10T03:48:37;4.97;;;2.72;;
59442;SDS011;45247;47.466;19.004;2023-05-10T03:51:05;4.15;;;2.72;;
59442;SDS011;45247;47.466;19.004;2023-05-10T03:53:34;5.13;;;2.83;;
59442;SDS011;45247;47.466;19.004;2023-05-10T03:56:02;5.72;;;2.63;;
59442;SDS011;45247;47.466;19.004;2023-05-10T03:58:31;5.55;;;2.60;;
59442;SDS011;45247;47.466;19.004;2023-05-10T04:00:59;3.05;;;2.60;;
59442;SDS011;45247;47.466;19.004;2023-05-10T04:03:27;5.00;;;2.60;;
59442;SDS011;45247;47.466;19.004;2023-05-10T04:05:59;4.88;;;2.90;;
59442;SDS011;45247;47.466;19.004;2023-05-10T04:11:05;6.05;;;2.70;;
59442;SDS011;45247;47.466;19.004;2023-05-10T04:13:34;3.95;;;2.67;;
59442;SDS011;45247;47.466;19.004;2023-05-10T04:16:03;8.50;;;3.40;;
59442;SDS011;45247;47.466;19.004;2023-05-10T04:18:32;4.68;;;3.05;;
59442;SDS011;45247;47.466;19.004;2023-05-10T04:21:00;5.43;;;2.70;;
59442;SDS011;45247;47.466;19.004;2023-05-10T04:23:29;2.95;;;2.08;;
59442;SDS011;45247;47.466;19.004;2023-05-10T04:26:00;3.40;;;2.28;;
59442;SDS011;45247;47.466;19.004;2023-05-10T04:28:29;6.70;;;2.33;;
59442;SDS011;45247;47.466;19.004;2023-05-10T04:31:01;3.90;;;2.15;;
59442;SDS011;45247;47.466;19.004;2023-05-10T04:33:30;3.17;;;2.42;;
59442;SDS011;45247;47.466;19.004;2023-05-10T04:35:59;3.15;;;2.30;;
59442;SDS011;45247;47.466;19.004;2023-05-10T04:38:27;6.57;;;2.05;;
59442;SDS011;45247;47.466;19.004;2023-05-10T04:41:03;4.30;;;2.25;;
59442;SDS011;45247;47.466;19.004;2023-05-10T04:43:33;3.78;;;2.20;;
59442;SDS011;45247;47.466;19.004;2023-05-10T04:46:01;2.97;;;2.00;;
59442;SDS011;45247;47.466;19.004;2023-05-10T04:48:30;5.53;;;2.58;;
59442;SDS011;45247;47.466;19.004;2023-05-10T04:50:58;2.60;;;1.67;;
59442;SDS011;45247;47.466;19.004;2023-05-10T04:53:26;4.07;;;2.17;;
59442;SDS011;45247;47.466;19.004;2023-05-10T04:55:54;6.15;;;2.47;;
59442;SDS011;45247;47.466;19.004;2023-05-10T04:58:23;2.20;;;1.90;;
59442;SDS011;45247;47.466;19.004;2023-05-10T05:00:52;4.65;;;1.75;;
59442;SDS011;45247;47.466;19.004;2023-05-10T05:03:21;5.60;;;1.80;;
59442;SDS011;45247;47.466;19.004;2023-05-10T05:05:49;3.55;;;1.80;;
59442;SDS011;45247;47.466;19.004;2023-05-10T05:08:17;2.20;;;1.67;;
59442;SDS011;45247;47.466;19.004;2023-05-10T05:10:45;3.45;;;2.03;;
59442;SDS011;45247;47.466;19.004;2023-05-10T05:13:16;5.63;;;2.08;;
59442;SDS011;45247;47.466;19.004;2023-05-10T05:15:45;4.07;;;2.25;;
59442;SDS011;45247;47.466;19.004;2023-05-10T05:18:14;3.88;;;2.03;;
59442;SDS011;45247;47.466;19.004;2023-05-10T05:20:42;3.28;;;1.80;;
59442;SDS011;45247;47.466;19.004;2023-05-10T05:23:11;5.65;;;2.10;;
59442;SDS011;45247;47.466;19.004;2023-05-10T05:25:39;6.13;;;2.17;;
59442;SDS011;45247;47.466;19.004;2023-05-10T05:28:07;5.47;;;1.92;;
59442;SDS011;45247;47.466;19.004;2023-05-10T05:30:35;4.65;;;2.25;;
59442;SDS011;45247;47.466;19.004;2023-05-10T05:33:03;6.45;;;2.10;;
59442;SDS011;45247;47.466;19.004;2023-05-10T05:35:32;2.85;;;2.00;;
59442;SDS011;45247;47.466;19.004;2023-05-10T05:38:01;3.30;;;2.28;;
59442;SDS011;45247;47.466;19.004;2023-05-10T05:40:29;3.17;;;2.28;;
59442;SDS011;45247;47.466;19.004;2023-05-10T05:42:57;4.93;;;2.40;;
59442;SDS011;45247;47.466;19.004;2023-05-10T05:45:25;3.47;;;2.20;;
59442;SDS011;45247;47.466;19.004;2023-05-10T05:47:53;5.53;;;2.13;;
59442;SDS011;45247;47.466;19.004;2023-05-10T05:50:21;5.43;;;2.50;;
59442;SDS011;45247;47.466;19.004;2023-05-10T05:52:51;3.88;;;2.10;;
59442;SDS011;45247;47.466;19.004;2023-05-10T05:55:19;3.28;;;2.08;;
59442;SDS011;45247;47.466;19.004;2023-05-10T05:57:47;3.17;;;2.08;;
59442;SDS011;45247;47.466;19.004;2023-05-10T06:00:15;2.75;;;1.83;;
59442;SDS011;45247;47.466;19.004;2023-05-10T06:02:44;4.10;;;1.85;;
59442;SDS011;45247;47.466;19.004;2023-05-10T06:05:15;6.68;;;2.40;;
59442;SDS011;45247;47.466;19.004;2023-05-10T06:07:44;6.25;;;2.08;;
59442;SDS011;45247;47.466;19.004;2023-05-10T06:10:13;6.63;;;2.00;;
59442;SDS011;45247;47.466;19.004;2023-05-10T06:12:41;3.67;;;2.22;;
59442;SDS011;45247;47.466;19.004;2023-05-10T06:15:10;2.85;;;1.90;;
59442;SDS011;45247;47.466;19.004;2023-05-10T06:17:39;4.57;;;1.85;;
59442;SDS011;45247;47.466;19.004;2023-05-10T06:20:09;2.53;;;1.83;;
59442;SDS011;45247;47.466;19.004;2023-05-10T06:22:39;5.50;;;1.90;;
59442;SDS011;45247;47.466;19.004;2023-05-10T06:25:07;4.15;;;2.20;;
59442;SDS011;45247;47.466;19.004;2023-05-10T06:27:37;3.38;;;2.03;;
59442;SDS011;45247;47.466;19.004;2023-05-10T06:30:06;4.72;;;2.08;;
59442;SDS011;45247;47.466;19.004;2023-05-10T06:32:39;5.25;;;2.28;;
59442;SDS011;45247;47.466;19.004;2023-05-10T06:35:10;4.28;;;2.22;;
59442;SDS011;45247;47.466;19.004;2023-05-10T06:37:38;8.88;;;2.25;;
59442;SDS011;45247;47.466;19.004;2023-05-10T06:40:07;5.13;;;2.60;;
59442;SDS011;45247;47.466;19.004;2023-05-10T06:42:35;3.47;;;2.10;;
59442;SDS011;45247;47.466;19.004;2023-05-10T06:45:06;5.18;;;1.92;;
59442;SDS011;45247;47.466;19.004;2023-05-10T06:47:35;5.72;;;1.83;;
59442;SDS011;45247;47.466;19.004;2023-05-10T06:50:05;3.33;;;2.00;;
59442;SDS011;45247;47.466;19.004;2023-05-10T06:52:34;4.60;;;2.42;;
59442;SDS011;45247;47.466;19.004;2023-05-10T06:55:03;3.95;;;1.92;;
59442;SDS011;45247;47.466;19.004;2023-05-10T06:57:32;5.47;;;2.03;;
59442;SDS011;45247;47.466;19.004;2023-05-10T07:00:00;4.03;;;1.65;;
59442;SDS011;45247;47.466;19.004;2023-05-10T07:02:32;2.72;;;2.03;;
59442;SDS011;45247;47.466;19.004;2023-05-10T07:05:00;2.67;;;1.85;;
59442;SDS011;45247;47.466;19.004;2023-05-10T07:07:40;4.30;;;1.85;;
59442;SDS011;45247;47.466;19.004;2023-05-10T07:10:09;4.32;;;2.50;;
59442;SDS011;45247;47.466;19.004;2023-05-10T07:12:37;4.25;;;2.00;;
59442;SDS011;45247;47.466;19.004;2023-05-10T07:15:06;4.80;;;2.13;;
59442;SDS011;45247;47.466;19.004;2023-05-10T07:17:37;3.42;;;2.38;;
59442;SDS011;45247;47.466;19.004;2023-05-10T07:20:08;3.05;;;2.20;;
59442;SDS011;45247;47.466;19.004;2023-05-10T07:22:36;4.93;;;2.25;;
59442;SDS011;45247;47.466;19.004;2023-05-10T07:25:05;4.70;;;2.42;;
59442;SDS011;45247;47.466;19.004;2023-05-10T07:27:34;3.50;;;2.20;;
59442;SDS011;45247;47.466;19.004;2023-05-10T07:30:02;2.70;;;2.20;;
59442;SDS011;45247;47.466;19.004;2023-05-10T07:32:30;5.75;;;2.53;;
59442;SDS011;45247;47.466;19.004;2023-05-10T07:35:00;4.20;;;2.20;;
59442;SDS011;45247;47.466;19.004;2023-05-10T07:37:29;3.15;;;2.13;;
59442;SDS011;45247;47.466;19.004;2023-05-10T07:39:57;2.70;;;1.70;;
59442;SDS011;45247;47.466;19.004;2023-05-10T07:42:25;6.85;;;2.28;;
59442;SDS011;45247;47.466;19.004;2023-05-10T07:44:54;4.35;;;2.30;;
59442;SDS011;45247;47.466;19.004;2023-05-10T07:47:22;1.92;;;1.60;;
59442;SDS011;45247;47.466;19.004;2023-05-10T07:49:50;2.28;;;1.90;;
59442;SDS011;45247;47.466;19.004;2023-05-10T07:52:20;2.05;;;1.85;;
59442;SDS011;45247;47.466;19.004;2023-05-10T07:54:48;3.60;;;1.90;;
59442;SDS011;45247;47.466;19.004;2023-05-10T07:57:17;2.50;;;1.65;;
59442;SDS011;45247;47.466;19.004;2023-05-10T07:59:45;4.07;;;1.58;;
59442;SDS011;45247;47.466;19.004;2023-05-10T08:02:13;3.83;;;1.98;;
59442;SDS011;45247;47.466;19.004;2023-05-10T08:04:42;4.20;;;1.63;;
59442;SDS011;45247;47.466;19.004;2023-05-10T08:07:10;2.17;;;1.70;;
59442;SDS011;45247;47.466;19.004;2023-05-10T08:09:39;4.35;;;1.98;;
59442;SDS011;45247;47.466;19.004;2023-05-10T08:12:07;2.65;;;1.80;;
59442;SDS011;45247;47.466;19.004;2023-05-10T08:14:36;2.08;;;1.73;;
59442;SDS011;45247;47.466;19.004;2023-05-10T08:17:04;3.63;;;2.22;;
59442;SDS011;45247;47.466;19.004;2023-05-10T08:19:32;2.50;;;1.92;;
59442;SDS011;45247;47.466;19.004;2023-05-10T08:22:00;2.83;;;1.73;;
59442;SDS011;45247;47.466;19.004;2023-05-10T08:24:28;5.32;;;2.03;;
59442;SDS011;45247;47.466;19.004;2023-05-10T08:26:58;6.70;;;1.85;;
59442;SDS011;45247;47.466;19.004;2023-05-10T08:29:26;4.20;;;1.83;;
59442;SDS011;45247;47.466;19.004;2023-05-10T08:32:00;2.97;;;1.75;;
59442;SDS011;45247;47.466;19.004;2023-05-10T08:34:28;4.55;;;1.90;;
59442;SDS011;45247;47.466;19.004;2023-05-10T08:36:57;3.47;;;1.95;;
59442;SDS011;45247;47.466;19.004;2023-05-10T08:39:25;2.63;;;1.75;;
59442;SDS011;45247;47.466;19.004;2023-05-10T08:41:57;2.97;;;2.10;;
59442;SDS011;45247;47.466;19.004;2023-05-10T08:44:29;3.88;;;2.10;;
59442;SDS011;45247;47.466;19.004;2023-05-10T08:46:59;3.30;;;1.90;;
59442;SDS011;45247;47.466;19.004;2023-05-10T08:49:32;3.13;;;2.08;;
59442;SDS011;45247;47.466;19.004;2023-05-10T08:52:02;3.65;;;2.35;;
59442;SDS011;45247;47.466;19.004;2023-05-10T08:54:33;2.22;;;1.70;;
59442;SDS011;45247;47.466;19.004;2023-05-10T08:57:03;4.07;;;1.80;;
59442;SDS011;45247;47.466;19.004;2023-05-10T08:59:32;3.83;;;1.90;;
59442;SDS011;45247;47.466;19.004;2023-05-10T09:02:00;7.93;;;2.20;;
59442;SDS011;45247;47.466;19.004;2023-05-10T09:04:29;3.63;;;2.08;;
59442;SDS011;45247;47.466;19.004;2023-05-10T09:06:59;3.13;;;2.30;;
59442;SDS011;45247;47.466;19.004;2023-05-10T09:09:27;5.28;;;2.80;;
59442;SDS011;45247;47.466;19.004;2023-05-10T09:11:56;3.25;;;1.80;;
59442;SDS011;45247;47.466;19.004;2023-05-10T09:14:26;3.45;;;1.83;;
59442;SDS011;45247;47.466;19.004;2023-05-10T09:16:54;1.80;;;1.63;;
59442;SDS011;45247;47.466;19.004;2023-05-10T09:19:23;3.53;;;1.80;;
59442;SDS011;45247;47.466;19.004;2023-05-10T09:21:52;7.32;;;2.70;;
59442;SDS011;45247;47.466;19.004;2023-05-10T09:24:20;1.92;;;1.52;;
59442;SDS011;45247;47.466;19.004;2023-05-10T09:26:53;3.22;;;2.15;;
59442;SDS011;45247;47.466;19.004;2023-05-10T09:29:21;2.50;;;2.03;;
59442;SDS011;45247;47.466;19.004;2023-05-10T09:31:51;2.42;;;1.73;;
59442;SDS011;45247;47.466;19.004;2023-05-10T09:34:22;3.20;;;2.03;;
59442;SDS011;45247;47.466;19.004;2023-05-10T09:36:57;2.53;;;1.90;;
59442;SDS011;45247;47.466;19.004;2023-05-10T09:39:31;2.40;;;1.70;;
59442;SDS011;45247;47.466;19.004;2023-05-10T09:42:01;4.30;;;2.10;;
59442;SDS011;45247;47.466;19.004;2023-05-10T09:44:31;4.68;;;2.28;;
59442;SDS011;45247;47.466;19.004;2023-05-10T09:47:02;5.28;;;2.03;;
59442;SDS011;45247;47.466;19.004;2023-05-10T09:49:30;2.80;;;1.90;;
59442;SDS011;45247;47.466;19.004;2023-05-10T09:52:00;4.40;;;2.30;;
59442;SDS011;45247;47.466;19.004;2023-05-10T09:54:30;5.72;;;1.80;;
59442;SDS011;45247;47.466;19.004;2023-05-10T09:56:58;4.10;;;2.00;;
59442;SDS011;45247;47.466;19.004;2023-05-10T09:59:27;2.20;;;1.60;;
59442;SDS011;45247;47.466;19.004;2023-05-10T10:01:57;2.90;;;1.85;;
59442;SDS011;45247;47.466;19.004;2023-05-10T10:04:31;2.28;;;1.88;;
59442;SDS011;45247;47.466;19.004;2023-05-10T10:07:00;7.25;;;2.00;;
59442;SDS011;45247;47.466;19.004;2023-05-10T10:09:30;4.78;;;2.05;;
59442;SDS011;45247;47.466;19.004;2023-05-10T10:11:59;5.40;;;1.70;;
59442;SDS011;45247;47.466;19.004;2023-05-10T10:14:27;4.22;;;1.70;;
59442;SDS011;45247;47.466;19.004;2023-05-10T10:16:56;1.90;;;1.60;;
59442;SDS011;45247;47.466;19.004;2023-05-10T10:19:35;3.17;;;1.58;;
59442;SDS011;45247;47.466;19.004;2023-05-10T10:22:04;3.83;;;1.70;;
59442;SDS011;45247;47.466;19.004;2023-05-10T10:24:32;2.40;;;1.77;;
59442;SDS011;45247;47.466;19.004;2023-05-10T10:27:07;2.45;;;1.52;;
59442;SDS011;45247;47.466;19.004;2023-05-10T10:29:47;3.35;;;1.45;;
59442;SDS011;45247;47.466;19.004;2023-05-10T10:32:25;7.18;;;2.00;;
59442;SDS011;45247;47.466;19.004;2023-05-10T10:35:02;2.92;;;1.60;;
59442;SDS011;45247;47.466;19.004;2023-05-10T10:37:41;4.43;;;2.03;;
59442;SDS011;45247;47.466;19.004;2023-05-10T10:46:09;2.00;;;1.30;;
59442;SDS011;45247;47.466;19.004;2023-05-10T10:48:40;3.05;;;1.42;;
59442;SDS011;45247;47.466;19.004;2023-05-10T10:51:11;1.95;;;1.50;;
59442;SDS011;45247;47.466;19.004;2023-05-10T10:53:41;1.67;;;1.27;;
59442;SDS011;45247;47.466;19.004;2023-05-10T10:56:10;2.97;;;1.40;;
59442;SDS011;45247;47.466;19.004;2023-05-10T10:58:42;2.53;;;1.35;;
59442;SDS011;45247;47.466;19.004;2023-05-10T11:01:20;3.17;;;1.40;;
59442;SDS011;45247;47.466;19.004;2023-05-10T11:06:48;1.92;;;1.35;;
59442;SDS011;45247;47.466;19.004;2023-05-10T11:09:16;2.45;;;1.48;;
59442;SDS011;45247;47.466;19.004;2023-05-10T11:11:51;4.10;;;1.38;;
59442;SDS011;45247;47.466;19.004;2023-05-10T11:14:21;1.90;;;1.13;;
59442;SDS011;45247;47.466;19.004;2023-05-10T11:16:50;2.70;;;1.45;;
59442;SDS011;45247;47.466;19.004;2023-05-10T11:19:18;8.88;;;1.48;;
59442;SDS011;45247;47.466;19.004;2023-05-10T11:21:48;1.50;;;1.20;;
59442;SDS011;45247;47.466;19.004;2023-05-10T11:24:18;1.63;;;1.20;;
59442;SDS011;45247;47.466;19.004;2023-05-10T11:26:49;2.33;;;1.23;;
59442;SDS011;45247;47.466;19.004;2023-05-10T11:29:18;2.00;;;1.20;;
59442;SDS011;45247;47.466;19.004;2023-05-10T11:31:48;3.78;;;1.30;;
59442;SDS011;45247;47.466;19.004;2023-05-10T11:34:24;1.50;;;1.20;;
59442;SDS011;45247;47.466;19.004;2023-05-10T11:36:55;1.63;;;1.30;;
59442;SDS011;45247;47.466;19.004;2023-05-10T11:39:25;2.20;;;1.20;;
59442;SDS011;45247;47.466;19.004;2023-05-10T11:41:54;3.97;;;1.20;;
59442;SDS011;45247;47.466;19.004;2023-05-10T11:44:22;2.03;;;1.45;;
59442;SDS011;45247;47.466;19.004;2023-05-10T11:46:51;1.90;;;1.00;;
59442;SDS011;45247;47.466;19.004;2023-05-10T11:49:20;1.70;;;1.10;;
59442;SDS011;45247;47.466;19.004;2023-05-10T11:51:52;4.22;;;1.30;;
59442;SDS011;45247;47.466;19.004;2023-05-10T11:54:21;1.40;;;1.02;;
59442;SDS011;45247;47.466;19.004;2023-05-10T11:56:49;3.63;;;1.20;;
59442;SDS011;45247;47.466;19.004;2023-05-10T11:59:19;3.13;;;1.30;;
59442;SDS011;45247;47.466;19.004;2023-05-10T12:01:47;3.97;;;1.30;;
59442;SDS011;45247;47.466;19.004;2023-05-10T12:04:16;1.65;;;1.10;;
59442;SDS011;45247;47.466;19.004;2023-05-10T12:06:44;1.25;;;1.13;;
59442;SDS011;45247;47.466;19.004;2023-05-10T12:09:13;1.75;;;1.02;;
59442;SDS011;45247;47.466;19.004;2023-05-10T12:11:49;8.88;;;1.20;;
59442;SDS011;45247;47.466;19.004;2023-05-10T12:14:23;3.08;;;1.20;;
59442;SDS011;45247;47.466;19.004;2023-05-10T12:16:51;2.03;;;1.23;;
59442;SDS011;45247;47.466;19.004;2023-05-10T12:19:19;2.28;;;1.20;;
59442;SDS011;45247;47.466;19.004;2023-05-10T12:21:48;2.92;;;1.20;;
59442;SDS011;45247;47.466;19.004;2023-05-10T12:24:16;1.92;;;1.10;;
59442;SDS011;45247;47.466;19.004;2023-05-10T12:26:45;3.03;;;1.10;;
59442;SDS011;45247;47.466;19.004;2023-05-10T12:29:33;2.58;;;1.30;;
59442;SDS011;45247;47.466;19.004;2023-05-10T12:32:02;2.55;;;1.45;;
59442;SDS011;45247;47.466;19.004;2023-05-10T12:34:30;2.40;;;1.15;;
59442;SDS011;45247;47.466;19.004;2023-05-10T12:37:00;1.17;;;1.08;;
59442;SDS011;45247;47.466;19.004;2023-05-10T12:39:37;2.40;;;1.10;;
59442;SDS011;45247;47.466;19.004;2023-05-10T12:42:06;4.13;;;1.30;;
59442;SDS011;45247;47.466;19.004;2023-05-10T12:44:38;3.25;;;1.10;;
59442;SDS011;45247;47.466;19.004;2023-05-10T12:47:06;8.35;;;1.13;;
59442;SDS011;45247;47.466;19.004;2023-05-10T12:49:38;1.92;;;1.20;;
59442;SDS011;45247;47.466;19.004;2023-05-10T12:52:06;1.70;;;1.17;;
59442;SDS011;45247;47.466;19.004;2023-05-10T12:54:34;4.07;;;1.20;;
59442;SDS011;45247;47.466;19.004;2023-05-10T12:57:02;2.88;;;1.52;;
59442;SDS011;45247;47.466;19.004;2023-05-10T12:59:31;3.17;;;1.13;;
59442;SDS011;45247;47.466;19.004;2023-05-10T13:02:04;2.45;;;1.20;;
59442;SDS011;45247;47.466;19.004;2023-05-10T13:04:32;2.28;;;0.98;;
59442;SDS011;45247;47.466;19.004;2023-05-10T13:07:00;5.68;;;1.00;;
59442;SDS011;45247;47.466;19.004;2023-05-10T13:09:29;2.22;;;1.08;;
59442;SDS011;45247;47.466;19.004;2023-05-10T13:11:57;1.63;;;1.10;;
59442;SDS011;45247;47.466;19.004;2023-05-10T13:14:26;1.50;;;1.08;;
59442;SDS011;45247;47.466;19.004;2023-05-10T13:16:54;2.33;;;1.20;;
59442;SDS011;45247;47.466;19.004;2023-05-10T13:19:23;2.03;;;1.05;;
59442;SDS011;45247;47.466;19.004;2023-05-10T13:21:52;2.25;;;1.13;;
59442;SDS011;45247;47.466;19.004;2023-05-10T13:24:20;1.40;;;1.00;;
59442;SDS011;45247;47.466;19.004;2023-05-10T13:26:48;1.45;;;0.95;;
59442;SDS011;45247;47.466;19.004;2023-05-10T13:29:16;1.42;;;1.08;;
59442;SDS011;45247;47.466;19.004;2023-05-10T13:31:45;2.00;;;0.90;;
59442;SDS011;45247;47.466;19.004;2023-05-10T13:34:13;1.45;;;0.93;;
59442;SDS011;45247;47.466;19.004;2023-05-10T13:36:43;1.40;;;0.98;;
59442;SDS011;45247;47.466;19.004;2023-05-10T13:39:11;1.75;;;1.00;;
59442;SDS011;45247;47.466;19.004;2023-05-10T13:41:39;1.67;;;1.00;;
59442;SDS011;45247;47.466;19.004;2023-05-10T13:44:07;1.48;;;0.90;;
59442;SDS011;45247;47.466;19.004;2023-05-10T13:46:35;1.63;;;1.00;;
59442;SDS011;45247;47.466;19.004;2023-05-10T13:49:05;1.38;;;0.88;;
59442;SDS011;45247;47.466;19.004;2023-05-10T13:51:33;3.45;;;1.27;;
59442;SDS011;45247;47.466;19.004;2023-05-10T13:54:03;3.25;;;1.00;;
59442;SDS011;45247;47.466;19.004;2023-05-10T13:56:31;1.15;;;1.00;;
59442;SDS011;45247;47.466;19.004;2023-05-10T13:58:59;3.03;;;1.20;;
59442;SDS011;45247;47.466;19.004;2023-05-10T14:01:28;2.45;;;1.30;;
59442;SDS011;45247;47.466;19.004;2023-05-10T14:03:56;1.90;;;1.10;;
59442;SDS011;45247;47.466;19.004;2023-05-10T14:06:24;5.82;;;0.80;;
59442;SDS011;45247;47.466;19.004;2023-05-10T14:08:53;1.63;;;1.08;;
59442;SDS011;45247;47.466;19.004;2023-05-10T14:11:23;1.58;;;1.00;;
59442;SDS011;45247;47.466;19.004;2023-05-10T14:13:51;1.52;;;1.00;;
59442;SDS011;45247;47.466;19.004;2023-05-10T14:16:19;1.08;;;0.90;;
59442;SDS011;45247;47.466;19.004;2023-05-10T14:18:47;2.63;;;0.90;;
59442;SDS011;45247;47.466;19.004;2023-05-10T14:21:17;2.05;;;1.13;;
59442;SDS011;45247;47.466;19.004;2023-05-10T14:23:46;1.33;;;0.90;;
59442;SDS011;45247;47.466;19.004;2023-05-10T14:26:14;3.05;;;0.82;;
59442;SDS011;45247;47.466;19.004;2023-05-10T14:28:44;1.27;;;0.80;;
59442;SDS011;45247;47.466;19.004;2023-05-10T14:31:14;1.55;;;1.00;;
59442;SDS011;45247;47.466;19.004;2023-05-10T14:33:43;2.75;;;0.98;;
59442;SDS011;45247;47.466;19.004;2023-05-10T14:36:11;6.20;;;1.00;;
59442;SDS011;45247;47.466;19.004;2023-05-10T14:38:40;4.47;;;1.13;;
59442;SDS011;45247;47.466;19.004;2023-05-10T14:41:08;1.77;;;1.25;;
59442;SDS011;45247;47.466;19.004;2023-05-10T14:43:40;4.00;;;1.30;;
59442;SDS011;45247;47.466;19.004;2023-05-10T14:46:11;2.88;;;1.15;;
59442;SDS011;45247;47.466;19.004;2023-05-10T14:48:40;2.70;;;1.10;;
59442;SDS011;45247;47.466;19.004;2023-05-10T14:51:09;1.70;;;0.90;;
59442;SDS011;45247;47.466;19.004;2023-05-10T14:53:37;1.88;;;1.00;;
59442;SDS011;45247;47.466;19.004;2023-05-10T14:56:06;2.67;;;0.90;;
59442;SDS011;45247;47.466;19.004;2023-05-10T14:58:34;9.25;;;1.08;;
59442;SDS011;45247;47.466;19.004;2023-05-10T15:01:03;1.63;;;1.00;;
59442;SDS011;45247;47.466;19.004;2023-05-10T15:03:33;1.40;;;0.90;;
59442;SDS011;45247;47.466;19.004;2023-05-10T15:06:03;1.33;;;0.80;;